createdAt,value
2023-03-25T00:01:22.469Z,99176.67
2023-03-25T00:03:27.608Z,99175.28
2023-03-25T00:05:32.616Z,99173.86
2023-03-25T00:07:37.642Z,99168.66
2023-03-25T00:09:42.660Z,99176.66
2023-03-25T00:11:47.686Z,99169.15
2023-03-25T00:13:52.678Z,99167.55
2023-03-25T00:15:57.653Z,99165.35
2023-03-25T00:18:02.809Z,99159.86
2023-03-25T00:20:08.025Z,99157.45
2023-03-25T00:22:13.084Z,99155.69
2023-03-25T00:24:18.120Z,99156.08
2023-03-25T00:26:23.216Z,99150.39
2023-03-25T00:28:28.342Z,99145.56
2023-03-25T00:30:33.403Z,99150.88
2023-03-25T00:32:38.621Z,99151.52
2023-03-25T00:34:43.810Z,99145.38
2023-03-25T00:36:48.774Z,99142.34
2023-03-25T00:38:53.789Z,99144.57
2023-03-25T00:40:58.839Z,99141.63
2023-03-25T00:43:03.828Z,99145.19
2023-03-25T00:45:08.790Z,99149.84
2023-03-25T00:47:13.773Z,99148.13
2023-03-25T00:49:18.774Z,99144.98
2023-03-25T00:51:23.751Z,99143.95
2023-03-25T00:53:28.729Z,99145.25
2023-03-25T00:55:33.717Z,99148.58
2023-03-25T00:57:38.695Z,99141.84
2023-03-25T00:59:43.714Z,99140.42
2023-03-25T01:01:48.873Z,99144.13
2023-03-25T01:03:54.056Z,99141.44
2023-03-25T01:05:59.124Z,99144.43
2023-03-25T01:08:04.094Z,99138.92
2023-03-25T01:10:09.097Z,99142.76
2023-03-25T01:12:14.130Z,99140.31
2023-03-25T01:14:19.145Z,99138.25
2023-03-25T01:16:24.200Z,99137.35
2023-03-25T01:18:29.262Z,99135.65
2023-03-25T01:20:34.231Z,99137.67
2023-03-25T01:22:39.176Z,99136.33
2023-03-25T01:24:44.166Z,99135.52
2023-03-25T01:26:49.195Z,99132.31
2023-03-25T01:28:54.167Z,99134.19
2023-03-25T01:30:59.300Z,99136.97
2023-03-25T01:33:04.465Z,99135.49
2023-03-25T01:35:09.541Z,99130.16
2023-03-25T01:37:14.540Z,99125.05
2023-03-25T01:39:19.601Z,99121.25
2023-03-25T01:41:24.603Z,99123.34
2023-03-25T01:43:37.057Z,99125.41
2023-03-25T01:45:42.034Z,99127.58
2023-03-25T01:47:47.139Z,99119.36
2023-03-25T01:49:52.283Z,99108.86
2023-03-25T01:51:57.296Z,99108.01
2023-03-25T01:54:02.397Z,99107.31
2023-03-25T01:56:07.365Z,99107
2023-03-25T01:58:12.432Z,99102.16
2023-03-25T02:00:17.444Z,99097.97
2023-03-25T02:02:22.530Z,99098.58
2023-03-25T02:04:27.629Z,99094.42
2023-03-25T02:06:32.617Z,99090.9
2023-03-25T02:08:37.646Z,99088.03
2023-03-25T02:10:42.638Z,99088.09
2023-03-25T02:12:47.796Z,99087.69
2023-03-25T02:14:52.762Z,99090.91
2023-03-25T02:16:57.740Z,99084.02
2023-03-25T02:19:02.734Z,99085.16
2023-03-25T02:21:07.698Z,99091.66
2023-03-25T02:23:12.677Z,99087.51
2023-03-25T02:25:18.000Z,99090.41
2023-03-25T02:27:23.098Z,99090.88
2023-03-25T02:29:28.127Z,99092.12
2023-03-25T02:31:33.276Z,99087.69
2023-03-25T02:33:38.345Z,99086.14
2023-03-25T02:35:43.427Z,99082.15
2023-03-25T02:37:48.454Z,99083.17
2023-03-25T02:39:53.543Z,99078.98
2023-03-25T02:41:58.533Z,99083.17
2023-03-25T02:44:03.642Z,99082.75
2023-03-25T02:46:08.843Z,99083.82
2023-03-25T02:48:14.015Z,99083.05
2023-03-25T02:50:19.083Z,99079.45
2023-03-25T02:52:24.067Z,99079.69
2023-03-25T02:54:29.113Z,99081.96
2023-03-25T02:56:34.360Z,99086.05
2023-03-25T02:58:39.366Z,99091.16
2023-03-25T03:00:44.349Z,99090.23
2023-03-25T03:02:49.613Z,99092.36
2023-03-25T03:04:54.826Z,99088.03
2023-03-25T03:06:59.877Z,99092.04
2023-03-25T03:09:04.885Z,99090.41
2023-03-25T03:11:09.884Z,99090.75
2023-03-25T03:13:14.890Z,99086.28
2023-03-25T03:15:19.860Z,99089.23
2023-03-25T03:17:25.109Z,99080.67
2023-03-25T03:19:30.401Z,99081.64
2023-03-25T03:21:35.466Z,99087.7
2023-03-25T03:23:40.479Z,99084.05
2023-03-25T03:25:45.487Z,99085.46
2023-03-25T03:27:50.497Z,99086.13
2023-03-25T03:32:07.628Z,99094.64
2023-03-25T03:34:13.856Z,99100.02
2023-03-25T03:36:18.831Z,99106.3
2023-03-25T03:38:23.903Z,99101.13
2023-03-25T03:40:28.992Z,99104.42
2023-03-25T03:42:34.008Z,99098.06
2023-03-25T03:44:39.000Z,99094.47
2023-03-25T03:46:44.147Z,99097.92
2023-03-25T03:48:49.298Z,99097.5
2023-03-25T03:50:54.269Z,99100.38
2023-03-25T03:52:59.934Z,99102.82
2023-03-25T03:55:06.869Z,99095.23
2023-03-25T03:57:11.930Z,99096.7
2023-03-25T03:59:16.965Z,99097.19
2023-03-25T04:01:21.935Z,99096.3
2023-03-25T04:03:27.201Z,99098.44
2023-03-25T04:05:32.433Z,99100.93
2023-03-25T04:07:37.466Z,99100.03
2023-03-25T04:09:42.691Z,99100.03
2023-03-25T04:11:47.647Z,99103.87
2023-03-25T04:13:52.693Z,99102.39
2023-03-25T04:15:57.707Z,99108.51
2023-03-25T04:18:03.021Z,99101.8
2023-03-25T04:20:08.081Z,99097.88
2023-03-25T04:22:13.059Z,99101.38
2023-03-25T04:24:18.319Z,99103.38
2023-03-25T04:26:23.393Z,99102
2023-03-25T04:28:28.348Z,99104.11
2023-03-25T04:30:33.387Z,99107.75
2023-03-25T04:32:38.392Z,99105.83
2023-03-25T04:34:43.577Z,99107.03
2023-03-25T04:36:48.577Z,99105.53
2023-03-25T04:38:53.530Z,99107.98
2023-03-25T04:40:58.723Z,99106.03
2023-03-25T04:43:03.923Z,99110.77
2023-03-25T04:45:08.945Z,99110.38
2023-03-25T04:47:13.902Z,99117.31
2023-03-25T04:49:18.966Z,99116.89
2023-03-25T04:51:23.974Z,99113.77
2023-03-25T04:53:29.055Z,99108.88
2023-03-25T04:55:34.133Z,99110.63
2023-03-25T04:57:39.130Z,99112.15
2023-03-25T04:59:44.223Z,99114.36
2023-03-25T05:01:49.323Z,99116.75
2023-03-25T05:03:54.314Z,99120.03
2023-03-25T05:05:59.491Z,99122.2
2023-03-25T05:08:04.484Z,99123.14
2023-03-25T05:10:09.495Z,99124.66
2023-03-25T05:12:14.472Z,99122.83
2023-03-25T05:14:19.475Z,99116.73
2023-03-25T05:16:24.505Z,99117.64
2023-03-25T05:18:29.612Z,99114.89
2023-03-25T05:20:34.631Z,99116.84
2023-03-25T05:22:39.666Z,99114.89
2023-03-25T05:24:44.656Z,99111.84
2023-03-25T05:26:49.653Z,99113.7
2023-03-25T05:28:54.638Z,99111.02
2023-03-25T05:30:59.623Z,99108.56
2023-03-25T05:33:04.746Z,99107.19
2023-03-25T05:35:09.819Z,99109.05
2023-03-25T05:37:14.839Z,99105.8
2023-03-25T05:39:19.829Z,99107.76
2023-03-25T05:41:24.810Z,99108.14
2023-03-25T05:43:29.906Z,99110.22
2023-03-25T05:45:34.985Z,99108.17
2023-03-25T05:47:40.257Z,99117.73
2023-03-25T05:49:45.489Z,99118.06
2023-03-25T05:51:50.478Z,99122.53
2023-03-25T05:53:55.453Z,99125.08
2023-03-25T05:56:00.528Z,99123.6
2023-03-25T05:58:05.599Z,99123.84
2023-03-25T06:00:10.598Z,99122.18
2023-03-25T06:02:15.871Z,99125.24
2023-03-25T06:04:21.044Z,99124.41
2023-03-25T06:06:26.089Z,99122.05
2023-03-25T06:08:31.260Z,99121.98
2023-03-25T06:10:36.274Z,99123.55
2023-03-25T06:12:41.286Z,99122.66
2023-03-25T06:14:46.242Z,99126.56
2023-03-25T06:16:51.316Z,99123.41
2023-03-25T06:18:56.432Z,99123.26
2023-03-25T06:21:01.509Z,99120.77
2023-03-25T06:23:06.502Z,99122.52
2023-03-25T06:25:11.505Z,99119.38
2023-03-25T06:27:16.865Z,99118.45
2023-03-25T06:29:21.867Z,99116.38
2023-03-25T06:31:27.144Z,99117.38
2023-03-25T06:33:45.378Z,99119.89
2023-03-25T06:35:50.789Z,99114.36
2023-03-25T06:37:56.293Z,99116.14
2023-03-25T06:40:01.388Z,99118.42
2023-03-25T06:42:06.354Z,99119.48
2023-03-25T06:44:11.402Z,99116.66
2023-03-25T06:46:16.524Z,99115.23
2023-03-25T06:48:21.558Z,99116.7
2023-03-25T06:50:26.608Z,99117.38
2023-03-25T06:52:31.608Z,99124.94
2023-03-25T06:54:36.708Z,99119.22
2023-03-25T06:56:41.938Z,99127.6
2023-03-25T06:58:47.048Z,99119.25
2023-03-25T07:00:52.050Z,99115.53
2023-03-25T07:02:57.153Z,99110.16
2023-03-25T07:05:02.525Z,99109.28
2023-03-25T07:07:07.691Z,99105.94
2023-03-25T07:09:12.654Z,99103.06
2023-03-25T07:11:17.655Z,99109.53
2023-03-25T07:13:22.794Z,99115.16
2023-03-25T07:15:27.778Z,99105.51
2023-03-25T07:17:32.945Z,99110.41
2023-03-25T07:19:38.098Z,99110.52
2023-03-25T07:21:43.111Z,99114.77
2023-03-25T07:23:48.121Z,99118.32
2023-03-25T07:25:53.530Z,99117.27
2023-03-25T07:27:58.613Z,99116.77
2023-03-25T07:30:03.638Z,99124.63
2023-03-25T07:32:08.710Z,99125.48
2023-03-25T07:34:13.744Z,99123.16
2023-03-25T07:36:18.752Z,99122.27
2023-03-25T07:38:23.793Z,99117.83
2023-03-25T07:40:28.903Z,99117.71
2023-03-25T07:42:34.024Z,99121.58
2023-03-25T07:44:39.000Z,99113.86
2023-03-25T07:46:43.999Z,99114.44
2023-03-25T07:48:49.016Z,99120.17
2023-03-25T07:50:54.007Z,99120.69
2023-03-25T07:52:59.116Z,99118.36
2023-03-25T07:55:04.220Z,99123.63
2023-03-25T07:57:09.531Z,99120.22
2023-03-25T07:59:14.587Z,99117.39
2023-03-25T08:01:19.583Z,99109.67
2023-03-25T08:03:24.700Z,99110.27
2023-03-25T08:05:29.941Z,99118.75
2023-03-25T08:07:34.920Z,99115.66
2023-03-25T08:09:39.927Z,99115.94
2023-03-25T08:11:44.971Z,99116.55
2023-03-25T08:13:49.995Z,99120.54
2023-03-25T08:15:55.248Z,99119.48
2023-03-25T08:18:00.344Z,99117.32
2023-03-25T08:20:05.428Z,99114.64
2023-03-25T08:22:10.437Z,99112.05
2023-03-25T08:24:15.426Z,99117.06
2023-03-25T08:26:20.482Z,99116.2
2023-03-25T08:28:25.512Z,99121.32
2023-03-25T08:30:31.024Z,99116.86
2023-03-25T08:32:36.127Z,99118.67
2023-03-25T08:34:41.555Z,99119.59
2023-03-25T08:36:46.515Z,99117.53
2023-03-25T08:38:51.534Z,99117.09
2023-03-25T08:40:56.598Z,99117.05
2023-03-25T08:43:01.630Z,99119.17
2023-03-25T08:45:06.653Z,99117.86
2023-03-25T08:47:11.648Z,99116.56
2023-03-25T08:49:16.645Z,99125.91
2023-03-25T08:51:21.758Z,99122.52
2023-03-25T08:53:26.826Z,99119.22
2023-03-25T08:55:31.771Z,99129.57
2023-03-25T08:57:36.773Z,99116.61
2023-03-25T08:59:41.748Z,99116.66
2023-03-25T09:01:46.748Z,99114.24
2023-03-25T09:03:51.938Z,99119.06
2023-03-25T09:05:56.858Z,99121.14
2023-03-25T09:08:01.843Z,99119.19
2023-03-25T09:10:06.876Z,99112.02
2023-03-25T09:12:11.879Z,99113.47
2023-03-25T09:14:16.917Z,99120.02
2023-03-25T09:16:22.105Z,99111.99
2023-03-25T09:18:27.214Z,99114.38
2023-03-25T09:20:32.246Z,99119.77
2023-03-25T09:22:37.289Z,99121.03
2023-03-25T09:24:42.335Z,99116.46
2023-03-25T09:26:47.357Z,99122.23
2023-03-25T09:28:52.335Z,99128.36
2023-03-25T09:30:57.583Z,99126.19
2023-03-25T09:33:02.906Z,99124.67
2023-03-25T09:35:08.024Z,99123.95
2023-03-25T09:37:13.018Z,99112.89
2023-03-25T09:39:18.034Z,99115.86
2023-03-25T09:41:23.014Z,99113.69
2023-03-25T09:43:27.992Z,99115.44
2023-03-25T09:45:33.003Z,99117.83
2023-03-25T09:47:38.130Z,99119.64
2023-03-25T09:49:43.244Z,99116.28
2023-03-25T09:51:48.241Z,99117.36
2023-03-25T09:53:53.365Z,99118.5
2023-03-25T09:55:58.414Z,99114.05
2023-03-25T09:58:03.393Z,99109.45
2023-03-25T10:00:08.393Z,99112.14
2023-03-25T10:02:13.536Z,99102.31
2023-03-25T10:04:18.617Z,99107.11
2023-03-25T10:06:23.603Z,99101.59
2023-03-25T10:08:28.671Z,99092.8
2023-03-25T10:10:34.044Z,99095.55
2023-03-25T10:12:39.133Z,99096.7
2023-03-25T10:14:44.143Z,99094.56
2023-03-25T10:16:49.215Z,99095.94
2023-03-25T10:18:54.225Z,99090.15
2023-03-25T10:20:59.262Z,99097.23
2023-03-25T10:23:04.304Z,99090.37
2023-03-25T10:25:09.329Z,99091.45
2023-03-25T10:27:14.487Z,99097.91
2023-03-25T10:29:19.473Z,99094.91
2023-03-25T10:31:24.678Z,99091.47
2023-03-25T10:33:29.757Z,99082.79
2023-03-25T10:35:34.936Z,99084.41
2023-03-25T10:37:40.108Z,99087.8
2023-03-25T10:39:45.139Z,99080.49
2023-03-25T10:41:50.218Z,99080.44
2023-03-25T10:43:55.229Z,99074.88
2023-03-25T10:46:00.290Z,99076.26
2023-03-25T10:48:05.817Z,99080.83
2023-03-25T10:50:11.008Z,99073.87
2023-03-25T10:52:16.002Z,99072.8
2023-03-25T10:54:21.052Z,99065.74
2023-03-25T10:56:25.994Z,99070.44
2023-03-25T10:58:31.006Z,99074.06
2023-03-25T11:00:35.997Z,99068.94
2023-03-25T11:02:41.352Z,99063.44
2023-03-25T11:04:46.534Z,99059.46
2023-03-25T11:06:51.565Z,99048.88
2023-03-25T11:08:56.602Z,99048.84
2023-03-25T11:11:03.274Z,99045.16
2023-03-25T11:13:09.565Z,99049.91
2023-03-25T11:15:14.602Z,99042.75
2023-03-25T11:17:19.739Z,99046.67
2023-03-25T11:19:24.742Z,99044.45
2023-03-25T11:21:29.813Z,99037.05
2023-03-25T11:23:34.817Z,99036.5
2023-03-25T11:25:39.919Z,99040.27
2023-03-25T11:27:44.918Z,99037.38
2023-03-25T11:29:49.936Z,99029.11
2023-03-25T11:31:54.914Z,99034.68
2023-03-25T11:33:59.969Z,99035.61
2023-03-25T11:36:05.156Z,99037.56
2023-03-25T11:38:10.195Z,99032.2
2023-03-25T11:40:15.230Z,99027.27
2023-03-25T11:42:20.534Z,99026.09
2023-03-25T11:44:25.621Z,99031.89
2023-03-25T11:46:30.745Z,99029.42
2023-03-25T11:48:35.986Z,99025.42
2023-03-25T11:50:40.992Z,99032.58
2023-03-25T11:52:46.011Z,99035.94
2023-03-25T11:54:51.084Z,99038.61
2023-03-25T11:56:56.259Z,99043.69
2023-03-25T11:59:01.429Z,99041.18
2023-03-25T12:01:06.698Z,99051.3
2023-03-25T12:03:11.925Z,99063.89
2023-03-25T12:05:17.266Z,99059.92
2023-03-25T12:07:22.397Z,99052.78
2023-03-25T12:09:30.771Z,99057.08
2023-03-25T12:11:35.852Z,99075.35
2023-03-25T12:13:40.929Z,99080.17
2023-03-25T12:15:46.010Z,99082.3
2023-03-25T12:17:51.159Z,99071.12
2023-03-25T12:19:56.209Z,99084.81
2023-03-25T12:22:01.321Z,99091.3
2023-03-25T12:24:06.279Z,99102.63
2023-03-25T12:26:11.314Z,99112.45
2023-03-25T12:28:16.318Z,99120.31
2023-03-25T12:30:21.333Z,99119.48
2023-03-25T12:32:26.380Z,99125.05
2023-03-25T12:34:31.426Z,99124.71
2023-03-25T12:36:36.541Z,99126.67
2023-03-25T12:38:41.589Z,99127.13
2023-03-25T12:40:46.740Z,99117.94
2023-03-25T12:42:51.826Z,99129.86
2023-03-25T12:44:56.785Z,99125.44
2023-03-25T12:47:01.870Z,99125.41
2023-03-25T12:49:06.888Z,99127.11
2023-03-25T12:51:11.888Z,99122.23
2023-03-25T12:53:16.961Z,99113.06
2023-03-25T12:55:22.074Z,99115.76
2023-03-25T12:57:27.115Z,99111.95
2023-03-25T12:59:32.127Z,99113.83
2023-03-25T13:01:37.314Z,99110.89
2023-03-25T13:03:42.411Z,99111.19
2023-03-25T13:05:47.451Z,99114.27
2023-03-25T13:07:52.520Z,99111.23
2023-03-25T13:09:57.780Z,99112.38
2023-03-25T13:12:02.988Z,99103.41
2023-03-25T13:14:08.005Z,99114.27
2023-03-25T13:16:13.164Z,99114.88
2023-03-25T13:18:18.323Z,99117.28
2023-03-25T13:20:23.374Z,99107.58
2023-03-25T13:22:28.409Z,99108.86
2023-03-25T13:24:33.498Z,99103.27
2023-03-25T13:26:38.419Z,99102.09
2023-03-25T13:28:47.103Z,99100.13
2023-03-25T13:30:52.526Z,99091.66
2023-03-25T13:32:57.855Z,99088.3
2023-03-25T13:35:03.114Z,99092.92
2023-03-25T13:37:08.228Z,99083.61
2023-03-25T13:39:13.248Z,99089.52
2023-03-25T13:41:20.902Z,99086.38
2023-03-25T13:43:26.013Z,99079.88
2023-03-25T13:45:31.027Z,99091.16
2023-03-25T13:47:36.181Z,99092.26
2023-03-25T13:49:41.262Z,99087.41
2023-03-25T13:51:46.817Z,99088.2
2023-03-25T13:53:51.949Z,99084.69
2023-03-25T13:55:57.001Z,99081.61
2023-03-25T13:58:02.007Z,99083.05
2023-03-25T14:00:07.034Z,99090.61
2023-03-25T14:02:12.114Z,99083.98
2023-03-25T14:04:17.166Z,99087.74
2023-03-25T14:06:22.201Z,99083.84
2023-03-25T14:08:27.279Z,99086
2023-03-25T14:10:32.392Z,99078.45
2023-03-25T14:12:37.527Z,99078.09
2023-03-25T14:14:42.575Z,99069.38
2023-03-25T14:16:47.634Z,99070.07
2023-03-25T14:18:52.606Z,99072.88
2023-03-25T14:21:00.328Z,99063.56
2023-03-25T14:23:05.278Z,99064.2
2023-03-25T14:25:10.256Z,99071
2023-03-25T14:27:15.208Z,99065.55
2023-03-25T14:29:20.243Z,99067.29
2023-03-25T14:31:25.288Z,99071.47
2023-03-25T14:33:30.378Z,99073.82
2023-03-25T14:35:35.910Z,99072.22
2023-03-25T14:37:41.018Z,99076.04
2023-03-25T14:39:46.040Z,99071.96
2023-03-25T14:41:51.094Z,99072.3
2023-03-25T14:43:56.185Z,99073.99
2023-03-25T14:46:01.325Z,99072.69
2023-03-25T14:48:25.060Z,99074.86
2023-03-25T14:50:30.722Z,99074.29
2023-03-25T14:52:35.825Z,99075.36
2023-03-25T14:54:40.956Z,99090.14
2023-03-25T14:56:46.161Z,99113.94
2023-03-25T14:58:51.253Z,99108.91
2023-03-25T15:00:56.307Z,99109.3
2023-03-25T15:03:01.930Z,99114.28
2023-03-25T15:05:07.366Z,99119.4
2023-03-25T15:07:12.498Z,99119.92
2023-03-25T15:09:17.507Z,99133.84
2023-03-25T15:11:22.494Z,99134.55
2023-03-25T15:13:27.553Z,99134.05
2023-03-25T15:15:32.566Z,99131.28
2023-03-25T15:17:37.647Z,99111.92
2023-03-25T15:19:42.758Z,99119.58
2023-03-25T15:21:47.738Z,99118.17
2023-03-25T15:23:52.810Z,99113.39
2023-03-25T15:25:57.812Z,99114.47
2023-03-25T15:28:02.837Z,99112.34
2023-03-25T15:30:08.208Z,99110.02
2023-03-25T15:32:13.341Z,99090.97
2023-03-25T15:34:18.377Z,99096.23
2023-03-25T15:36:23.402Z,99091.84
2023-03-25T15:38:28.473Z,99093.47
2023-03-25T15:40:33.608Z,99085.09
2023-03-25T15:42:38.619Z,99083.44
2023-03-25T15:44:43.560Z,99082.2
2023-03-25T15:46:48.549Z,99075.66
2023-03-25T15:48:53.489Z,99073.78
2023-03-25T15:50:58.496Z,99069.92
2023-03-25T15:53:03.569Z,99073.09
2023-03-25T15:55:08.568Z,99074.2
2023-03-25T15:57:13.741Z,99074.38
2023-03-25T15:59:18.858Z,99064.09
2023-03-25T16:01:24.001Z,99063.64
2023-03-25T16:03:29.346Z,99060.31
2023-03-25T16:05:34.809Z,99053.53
2023-03-25T16:07:39.744Z,99056.02
2023-03-25T16:09:44.738Z,99052.66
2023-03-25T16:11:49.763Z,99048.18
2023-03-25T16:13:54.783Z,99050.09
2023-03-25T16:15:59.848Z,99053.03
2023-03-25T16:18:04.962Z,99052.88
2023-03-25T16:20:10.064Z,99057.7
2023-03-25T16:22:15.069Z,99056.3
2023-03-25T16:24:20.029Z,99058.86
2023-03-25T16:26:25.072Z,99061.83
2023-03-25T16:28:30.048Z,99053.08
2023-03-25T16:30:35.171Z,99063.2
2023-03-25T16:32:40.296Z,99057.31
2023-03-25T16:34:45.368Z,99061.69
2023-03-25T16:36:50.393Z,99063.36
2023-03-25T16:38:55.463Z,99062.22
2023-03-25T16:41:00.814Z,99063.28
2023-03-25T16:43:05.885Z,99064.19
2023-03-25T16:45:10.949Z,99066.07
2023-03-25T16:47:15.945Z,99066.05
2023-03-25T16:49:21.094Z,99063.66
2023-03-25T16:51:26.073Z,99069.44
2023-03-25T16:53:31.118Z,99070
2023-03-25T16:55:36.148Z,99070.27
2023-03-25T16:57:41.236Z,99069.36
2023-03-25T16:59:46.235Z,99070
2023-03-25T17:01:51.364Z,99069.05
2023-03-25T17:03:56.462Z,99066.77
2023-03-25T17:06:01.503Z,99062.41
2023-03-25T17:08:06.507Z,99064.42
2023-03-25T17:10:11.532Z,99063.76
2023-03-25T17:12:16.557Z,99061.76
2023-03-25T17:14:21.603Z,99057.91
2023-03-25T17:16:27.438Z,99065.02
2023-03-25T17:18:32.607Z,99064.2
2023-03-25T17:20:37.751Z,99060.17
2023-03-25T17:22:42.743Z,99063.8
2023-03-25T17:24:47.837Z,99061.7
2023-03-25T17:26:52.839Z,99064.69
2023-03-25T17:28:57.841Z,99067.26
2023-03-25T17:31:03.173Z,99068.73
2023-03-25T17:33:08.285Z,99069.24
2023-03-25T17:35:13.302Z,99070.7
2023-03-25T17:37:18.782Z,99069.88
2023-03-25T17:39:23.809Z,99063.69
2023-03-25T17:41:28.973Z,99063.46
2023-03-25T17:43:34.118Z,99061.08
2023-03-25T17:45:39.190Z,99055.94
2023-03-25T17:47:44.315Z,99054.55
2023-03-25T17:49:49.398Z,99053.55
2023-03-25T17:51:54.438Z,99057.23
2023-03-25T17:53:59.485Z,99053.94
2023-03-25T17:56:04.514Z,99056.84
2023-03-25T17:58:09.610Z,99059.89
2023-03-25T18:00:14.825Z,99063.02
2023-03-25T18:02:19.842Z,99060.61
2023-03-25T18:04:24.841Z,99061.91
2023-03-25T18:06:29.857Z,99060.34
2023-03-25T18:08:34.959Z,99063.92
2023-03-25T18:10:39.979Z,99066.54
2023-03-25T18:12:44.996Z,99067.58
2023-03-25T18:14:50.104Z,99068.55
2023-03-25T18:16:55.113Z,99069.61
2023-03-25T18:19:00.228Z,99070.03
2023-03-25T18:21:05.381Z,99075.02
2023-03-25T18:23:10.444Z,99071.44
2023-03-25T18:25:15.461Z,99073.9
2023-03-25T18:27:30.647Z,99071.55
2023-03-25T18:29:47.988Z,99080.44
2023-03-25T18:31:53.285Z,99088.06
2023-03-25T18:33:58.430Z,99112.33
2023-03-25T18:36:03.547Z,99126.28
2023-03-25T18:38:08.684Z,99126.71
2023-03-25T18:40:13.681Z,99121.67
2023-03-25T18:42:18.696Z,99123.47
2023-03-25T18:44:23.709Z,99120.12
2023-03-25T18:46:28.752Z,99124.17
2023-03-25T18:48:33.740Z,99131.94
2023-03-25T18:50:38.836Z,99132.5
2023-03-25T18:52:43.875Z,99134.2
2023-03-25T18:54:48.888Z,99131.45
2023-03-25T18:56:54.049Z,99129.13
2023-03-25T18:58:59.128Z,99120.22
2023-03-25T19:01:04.438Z,99126.29
2023-03-25T19:03:09.803Z,99122.7
2023-03-25T19:05:14.984Z,99125.64
2023-03-25T19:07:20.306Z,99128.41
2023-03-25T19:09:25.418Z,99130.81
2023-03-25T19:11:30.466Z,99132.83
2023-03-25T19:13:35.587Z,99130.16
2023-03-25T19:15:40.675Z,99140.22
2023-03-25T19:17:45.897Z,99136.13
2023-03-25T19:19:50.968Z,99136.34
2023-03-25T19:21:55.995Z,99137.78
2023-03-25T19:24:01.050Z,99134.42
2023-03-25T19:26:06.063Z,99135.19
2023-03-25T19:28:11.030Z,99140.1
2023-03-25T19:30:16.257Z,99137.25
2023-03-25T19:32:21.279Z,99136.16
2023-03-25T19:34:26.304Z,99139
2023-03-25T19:36:31.534Z,99137.67
2023-03-25T19:38:36.548Z,99138.99
2023-03-25T19:40:41.574Z,99143.16
2023-03-25T19:42:46.576Z,99147.92
2023-03-25T19:44:51.717Z,99135.17
2023-03-25T19:46:56.705Z,99137.7
2023-03-25T19:49:01.706Z,99144.11
2023-03-25T19:51:06.728Z,99142.02
2023-03-25T19:53:11.836Z,99135.05
2023-03-25T19:55:16.892Z,99140.15
2023-03-25T19:57:21.924Z,99140.3
2023-03-25T19:59:26.960Z,99141.28
2023-03-25T20:01:32.012Z,99145.96
2023-03-25T20:03:37.437Z,99144.89
2023-03-25T20:05:42.862Z,99136.52
2023-03-25T20:07:47.919Z,99138.16
2023-03-25T20:09:52.934Z,99132.81
2023-03-25T20:11:57.953Z,99135.17
2023-03-25T20:14:02.962Z,99136.72
2023-03-25T20:16:08.257Z,99141.62
2023-03-25T20:18:13.327Z,99143.06
2023-03-25T20:20:18.592Z,99140.21
2023-03-25T20:22:26.279Z,99141.61
2023-03-25T20:24:31.258Z,99141.49
2023-03-25T20:26:36.296Z,99143.59
2023-03-25T20:28:41.357Z,99140.11
2023-03-25T20:30:46.419Z,99137.39
2023-03-25T20:32:51.672Z,99137.45
2023-03-25T20:34:56.798Z,99133.48
2023-03-25T20:37:01.831Z,99130.98
2023-03-25T20:39:07.265Z,99137.39
2023-03-25T20:41:12.286Z,99131.17
2023-03-25T20:43:17.433Z,99134.89
2023-03-25T20:45:22.490Z,99131.2
2023-03-25T20:47:27.609Z,99120.39
2023-03-25T20:49:32.708Z,99127.3
2023-03-25T20:51:37.724Z,99120.39
2023-03-25T20:53:42.697Z,99119.53
2023-03-25T20:55:47.706Z,99123.36
2023-03-25T20:57:52.789Z,99126.48
2023-03-25T20:59:57.816Z,99122.2
2023-03-25T21:02:02.935Z,99123.05
2023-03-25T21:04:08.094Z,99125.14
2023-03-25T21:06:28.059Z,99124.09
2023-03-25T21:08:33.696Z,99124.4
2023-03-25T21:10:38.673Z,99125.05
2023-03-25T21:12:45.864Z,99122.34
2023-03-25T21:14:51.000Z,99126.13
2023-03-25T21:16:56.238Z,99138.47
2023-03-25T21:19:01.221Z,99129.41
2023-03-25T21:21:06.284Z,99129.2
2023-03-25T21:23:11.329Z,99124.88
2023-03-25T21:25:16.598Z,99130.59
2023-03-25T21:27:21.776Z,99120.36
2023-03-25T21:29:44.030Z,99122.52
2023-03-25T21:31:49.213Z,99125.75
2023-03-25T21:33:54.364Z,99123.85
2023-03-25T21:35:59.475Z,99126.94
2023-03-25T21:38:04.599Z,99127.71
2023-03-25T21:40:09.959Z,99129.53
2023-03-25T21:42:15.454Z,99131.07
2023-03-25T21:44:20.541Z,99127.98
2023-03-25T21:46:25.795Z,99121.33
2023-03-25T21:48:31.217Z,99122.73
2023-03-25T21:50:36.334Z,99119.55
2023-03-25T21:52:41.476Z,99122.02
2023-03-25T21:54:46.512Z,99125.48
2023-03-25T21:56:51.597Z,99130.18
2023-03-25T21:58:56.710Z,99114.92
2023-03-25T22:01:01.857Z,99118.64
2023-03-25T22:03:07.075Z,99122.13
2023-03-25T22:05:12.216Z,99123.56
2023-03-25T22:07:17.232Z,99117.54
2023-03-25T22:09:22.275Z,99116.15
2023-03-25T22:11:27.296Z,99116.25
2023-03-25T22:13:32.344Z,99109.84
2023-03-25T22:15:37.384Z,99106.63
2023-03-25T22:17:42.508Z,99102.28
2023-03-25T22:19:47.612Z,99099.7
2023-03-25T22:21:52.761Z,99096.74
2023-03-25T22:23:57.918Z,99099.23
2023-03-25T22:26:02.978Z,99101.92
2023-03-25T22:28:07.999Z,99097.5
2023-03-25T22:30:13.031Z,99091.94
2023-03-25T22:32:18.127Z,99094.42
2023-03-25T22:34:23.129Z,99094.11
2023-03-25T22:36:28.137Z,99094.33
2023-03-25T22:38:33.198Z,99098.2
2023-03-25T22:40:38.187Z,99100.59
2023-03-25T22:42:43.214Z,99102.84
2023-03-25T22:44:48.237Z,99100.45
2023-03-25T22:46:53.546Z,99091.79
2023-03-25T22:48:58.667Z,99092.2
2023-03-25T22:51:03.792Z,99086.41
2023-03-25T22:53:08.845Z,99088.91
2023-03-25T22:55:13.849Z,99091.38
2023-03-25T22:57:18.834Z,99092.53
2023-03-25T22:59:23.863Z,99085.86
2023-03-25T23:01:29.008Z,99093.81
2023-03-25T23:03:34.434Z,99091.45
2023-03-25T23:05:39.564Z,99093.54
2023-03-25T23:07:44.536Z,99086.61
2023-03-25T23:09:49.540Z,99088.09
2023-03-25T23:11:54.611Z,99100
2023-03-25T23:13:59.690Z,99089.69
2023-03-25T23:16:04.805Z,99094.44
2023-03-25T23:18:10.000Z,99098.59
2023-03-25T23:20:15.153Z,99093.28
2023-03-25T23:22:20.178Z,99088.27
2023-03-25T23:24:25.257Z,99087.41
2023-03-25T23:26:30.297Z,99082.16
2023-03-25T23:28:35.613Z,99087.04
2023-03-25T23:30:40.605Z,99081.79
2023-03-25T23:32:45.723Z,99086.53
2023-03-25T23:34:50.902Z,99081.25
2023-03-25T23:36:55.927Z,99090.19
2023-03-25T23:39:00.978Z,99075.8
2023-03-25T23:41:06.303Z,99072.79
2023-03-25T23:43:11.292Z,99071.55
2023-03-25T23:45:16.341Z,99069.23
2023-03-25T23:47:21.399Z,99074.45
2023-03-25T23:49:26.620Z,99066.55
2023-03-25T23:51:31.612Z,99067.53
2023-03-25T23:53:36.628Z,99068.89
2023-03-25T23:55:41.649Z,99069.45
2023-03-25T23:57:46.634Z,99065.42
2023-03-25T23:59:51.719Z,99075.84
